createdAt,value
2022-10-28T00:01:16.434Z,7.93
2022-10-28T00:03:48.250Z,8.32
2022-10-28T00:06:20.596Z,8.32
2022-10-28T00:08:48.806Z,9.70
2022-10-28T00:11:19.857Z,8.73
2022-10-28T00:13:47.863Z,7.80
2022-10-28T00:16:21.279Z,8.10
2022-10-28T00:18:49.453Z,9.15
2022-10-28T00:21:19.926Z,7.07
2022-10-28T00:23:47.677Z,7.40
2022-10-28T00:26:18.390Z,7.30
2022-10-28T00:28:48.454Z,8.30
2022-10-28T00:31:17.830Z,7.35
2022-10-28T00:33:45.982Z,7.95
2022-10-28T00:38:53.735Z,7.90
2022-10-28T00:50:06.150Z,8.45
2022-10-28T00:52:33.904Z,7.68
2022-10-28T00:55:03.130Z,6.28
2022-10-28T00:57:35.056Z,7.72
2022-10-28T01:00:04.652Z,6.55
2022-10-28T01:02:38.037Z,7.30
2022-10-28T01:05:05.856Z,6.03
2022-10-28T01:07:33.486Z,7.22
2022-10-28T01:10:03.173Z,7.30
2022-10-28T01:18:31.785Z,7.13
2022-10-28T01:24:23.729Z,6.60
2022-10-28T01:30:10.319Z,6.45
2022-10-28T01:43:38.174Z,6.57
2022-10-28T01:46:15.638Z,6.35
2022-10-28T01:49:06.110Z,6.60
2022-10-28T01:51:39.522Z,4.82
2022-10-28T01:54:12.524Z,5.30
2022-10-28T01:56:43.654Z,3.13
2022-10-28T01:59:21.543Z,2.40
2022-10-28T02:02:12.606Z,3.20
2022-10-28T02:04:53.758Z,3.40
2022-10-28T02:07:27.954Z,3.50
2022-10-28T02:10:18.439Z,3.28
2022-10-28T02:13:00.028Z,3.22
2022-10-28T02:33:35.535Z,4.88
2022-10-28T02:38:52.799Z,3.47
2022-10-28T02:41:55.777Z,4.38
2022-10-28T02:44:37.640Z,3.80
2022-10-28T02:47:13.439Z,4.03
2022-10-28T02:49:46.166Z,4.50
2022-10-28T02:52:16.082Z,3.90
2022-10-28T02:54:52.959Z,4.65
2022-10-28T02:57:25.308Z,4.30
2022-10-28T03:00:01.504Z,4.50
2022-10-28T03:02:31.986Z,3.92
2022-10-28T03:04:59.545Z,5.13
2022-10-28T03:07:27.252Z,3.78
2022-10-28T03:09:54.893Z,5.45
2022-10-28T03:12:22.485Z,5.68
2022-10-28T03:14:49.961Z,6.07
2022-10-28T03:17:17.406Z,6.15
2022-10-28T03:19:45.240Z,5.47
2022-10-28T03:22:12.667Z,6.15
2022-10-28T03:24:40.035Z,6.07
2022-10-28T03:27:07.496Z,6.00
2022-10-28T03:29:34.909Z,5.82
2022-10-28T03:32:02.551Z,6.28
2022-10-28T03:34:30.034Z,6.75
2022-10-28T03:36:58.109Z,6.60
2022-10-28T03:39:26.118Z,6.90
2022-10-28T03:41:53.459Z,6.30
2022-10-28T03:44:21.190Z,7.15
2022-10-28T03:46:50.936Z,6.75
2022-10-28T03:49:19.837Z,7.30
2022-10-28T03:51:48.589Z,6.63
2022-10-28T03:54:16.663Z,7.65
2022-10-28T03:56:44.310Z,7.72
2022-10-28T03:59:14.158Z,7.57
2022-10-28T04:01:43.958Z,7.25
2022-10-28T04:04:11.768Z,6.57
2022-10-28T04:06:39.175Z,7.05
2022-10-28T04:09:07.486Z,6.90
2022-10-28T04:11:35.811Z,7.53
2022-10-28T04:14:04.263Z,6.57
2022-10-28T04:16:32.045Z,7.35
2022-10-28T04:19:02.630Z,7.68
2022-10-28T04:21:30.458Z,8.23
2022-10-28T04:23:59.101Z,7.45
2022-10-28T04:26:27.737Z,7.25
2022-10-28T04:28:58.583Z,8.73
2022-10-28T04:31:27.823Z,7.50
2022-10-28T04:33:57.972Z,6.78
2022-10-28T04:36:25.812Z,8.02
2022-10-28T04:38:53.835Z,8.20
2022-10-28T04:41:21.297Z,8.07
2022-10-28T04:43:49.276Z,8.98
2022-10-28T04:46:17.683Z,9.98
2022-10-28T04:48:47.909Z,8.25
2022-10-28T04:51:15.833Z,9.43
2022-10-28T04:53:45.351Z,9.18
2022-10-28T04:56:13.466Z,7.40
2022-10-28T04:58:41.553Z,8.00
2022-10-28T05:01:11.357Z,7.32
2022-10-28T05:03:40.326Z,9.55
2022-10-28T05:06:08.754Z,7.22
2022-10-28T05:08:37.068Z,8.57
2022-10-28T05:11:05.273Z,7.95
2022-10-28T05:13:33.976Z,7.93
2022-10-28T05:16:02.081Z,8.93
2022-10-28T05:18:31.502Z,9.70
2022-10-28T05:21:00.285Z,8.82
2022-10-28T05:23:30.772Z,7.85
2022-10-28T05:25:59.906Z,8.70
2022-10-28T05:28:28.639Z,8.60
2022-10-28T05:30:57.352Z,7.78
2022-10-28T05:33:27.983Z,7.75
2022-10-28T05:35:55.450Z,9.25
2022-10-28T05:38:22.840Z,7.53
2022-10-28T05:40:55.705Z,7.80
2022-10-28T05:45:59.579Z,8.05
2022-10-28T05:48:30.367Z,8.05
2022-10-28T05:50:58.687Z,9.32
2022-10-28T05:53:27.641Z,8.13
2022-10-28T05:55:56.552Z,9.60
2022-10-28T05:58:25.644Z,9.50
2022-10-28T06:00:58.830Z,7.70
2022-10-28T06:03:30.973Z,8.48
2022-10-28T06:06:00.938Z,8.55
2022-10-28T06:08:29.133Z,9.10
2022-10-28T06:10:56.841Z,8.95
2022-10-28T06:13:32.818Z,8.05
2022-10-28T06:16:04.493Z,8.98
2022-10-28T06:18:33.513Z,9.00
2022-10-28T06:21:08.396Z,8.35
2022-10-28T06:23:38.678Z,9.35
2022-10-28T06:26:08.786Z,8.32
2022-10-28T06:28:36.311Z,8.48
2022-10-28T06:31:08.371Z,8.85
2022-10-28T06:33:35.949Z,7.80
2022-10-28T06:36:03.620Z,7.45
2022-10-28T06:38:35.067Z,8.15
2022-10-28T06:41:12.646Z,9.80
2022-10-28T06:43:48.920Z,7.75
2022-10-28T06:46:18.796Z,9.35
2022-10-28T06:49:14.855Z,8.10
2022-10-28T06:54:14.132Z,9.27
2022-10-28T06:56:46.778Z,8.95
2022-10-28T06:59:14.238Z,9.27
2022-10-28T07:01:47.565Z,8.68
2022-10-28T07:04:21.398Z,8.80
2022-10-28T07:06:52.097Z,10.60
2022-10-28T07:09:24.194Z,9.23
2022-10-28T07:12:05.091Z,10.00
2022-10-28T07:14:38.899Z,8.48
2022-10-28T07:17:14.718Z,10.13
2022-10-28T07:19:45.223Z,9.35
2022-10-28T07:22:15.595Z,9.63
2022-10-28T07:24:43.028Z,9.05
2022-10-28T07:27:16.086Z,7.32
2022-10-28T07:29:48.850Z,8.20
2022-10-28T07:32:19.531Z,9.05
2022-10-28T07:34:49.359Z,7.38
2022-10-28T07:37:21.925Z,7.18
2022-10-28T07:39:54.946Z,7.63
2022-10-28T07:42:30.326Z,7.68
2022-10-28T07:45:02.218Z,7.63
2022-10-28T07:47:32.736Z,7.85
2022-10-28T07:50:32.920Z,6.45
2022-10-28T07:53:13.179Z,7.10
2022-10-28T07:55:44.018Z,6.95
2022-10-28T07:58:13.526Z,6.70
2022-10-28T08:00:43.342Z,6.70
2022-10-28T08:03:10.849Z,6.88
2022-10-28T08:05:38.301Z,6.65
2022-10-28T08:08:13.934Z,6.13
2022-10-28T08:10:51.090Z,6.20
2022-10-28T08:13:24.927Z,6.13
2022-10-28T08:18:54.323Z,5.90
2022-10-28T08:21:30.085Z,6.45
2022-10-28T08:24:04.956Z,5.88
2022-10-28T08:26:40.216Z,5.30
2022-10-28T08:29:14.184Z,6.05
2022-10-28T08:31:44.421Z,5.13
2022-10-28T08:34:14.678Z,4.32
2022-10-28T08:36:45.156Z,6.03
2022-10-28T08:39:20.734Z,6.45
2022-10-28T08:42:09.005Z,6.18
2022-10-28T08:44:57.390Z,5.50
2022-10-28T08:50:34.083Z,5.82
2022-10-28T08:53:14.233Z,5.30
2022-10-28T08:55:50.281Z,5.18
2022-10-28T08:58:28.744Z,5.30
2022-10-28T09:01:00.233Z,4.53
2022-10-28T09:03:39.041Z,5.15
2022-10-28T09:06:15.781Z,4.90
2022-10-28T09:08:47.591Z,5.68
2022-10-28T09:17:27.273Z,5.35
2022-10-28T09:20:13.370Z,6.25
2022-10-28T09:22:58.290Z,5.20
2022-10-28T09:25:57.403Z,5.32
2022-10-28T09:31:39.642Z,6.32
2022-10-28T09:37:13.920Z,6.35
2022-10-28T09:40:13.889Z,5.85
2022-10-28T09:43:06.004Z,5.65
2022-10-28T09:45:56.889Z,5.03
2022-10-28T09:48:45.700Z,5.97
2022-10-28T09:51:43.567Z,5.32
2022-10-28T09:54:16.859Z,5.70
2022-10-28T10:07:45.529Z,6.07
2022-10-28T10:10:25.040Z,4.85
2022-10-28T10:12:59.522Z,5.07
2022-10-28T10:16:18.322Z,5.28
2022-10-28T10:18:58.604Z,5.03
2022-10-28T10:24:37.079Z,4.78
2022-10-28T10:30:07.174Z,4.93
2022-10-28T10:32:41.432Z,6.00
2022-10-28T10:37:52.147Z,5.07
2022-10-28T10:40:34.489Z,5.07
2022-10-28T10:43:26.313Z,5.35
2022-10-28T10:48:50.736Z,5.97
2022-10-28T10:51:26.381Z,6.22
2022-10-28T10:54:15.212Z,5.90
2022-10-28T10:56:47.068Z,6.38
2022-10-28T10:59:31.332Z,7.63
2022-10-28T11:02:02.138Z,6.55
2022-10-28T11:04:41.782Z,6.63
2022-10-28T11:13:06.472Z,6.88
2022-10-28T11:15:38.837Z,6.18
2022-10-28T11:20:57.519Z,7.07
2022-10-28T11:26:13.939Z,10.88
2022-10-28T11:29:07.830Z,7.15
2022-10-28T11:40:29.311Z,6.63
2022-10-28T11:43:25.367Z,6.55
2022-10-28T11:46:05.101Z,7.22
2022-10-28T11:54:20.764Z,6.95
2022-10-28T11:57:02.225Z,5.63
2022-10-28T12:00:15.060Z,6.47
2022-10-28T12:11:12.323Z,6.07
2022-10-28T12:14:05.119Z,6.13
2022-10-28T12:16:42.313Z,6.00
2022-10-28T12:19:17.560Z,6.90
2022-10-28T12:24:37.307Z,7.10
2022-10-28T12:27:18.248Z,7.53
2022-10-28T12:29:51.775Z,7.03
2022-10-28T12:32:26.571Z,7.30
2022-10-28T12:37:42.130Z,6.35
2022-10-28T12:40:20.941Z,6.43
2022-10-28T12:43:02.686Z,5.68
2022-10-28T12:45:32.444Z,5.82
2022-10-28T12:48:14.806Z,5.40
2022-10-28T12:50:53.018Z,5.63
2022-10-28T12:53:31.391Z,5.25
2022-10-28T12:56:13.416Z,5.65
2022-10-28T13:01:35.255Z,5.65
2022-10-28T13:04:02.962Z,6.22
2022-10-28T13:09:38.001Z,5.93
2022-10-28T13:12:22.756Z,6.50
2022-10-28T13:15:29.700Z,5.55
2022-10-28T13:28:54.299Z,6.68
2022-10-28T13:34:01.055Z,5.88
2022-10-28T13:36:49.108Z,6.00
2022-10-28T13:45:15.133Z,7.03
2022-10-28T13:47:42.583Z,6.55
2022-10-28T13:50:16.008Z,6.90
2022-10-28T13:58:24.426Z,6.38
2022-10-28T14:00:53.856Z,6.57
2022-10-28T14:03:37.998Z,6.30
2022-10-28T14:06:19.148Z,8.05
2022-10-28T14:08:46.961Z,7.32
2022-10-28T14:11:24.264Z,7.70
2022-10-28T14:13:57.112Z,7.43
2022-10-28T14:16:33.584Z,8.50
2022-10-28T14:19:05.968Z,7.43
2022-10-28T14:24:42.773Z,7.47
2022-10-28T14:49:38.044Z,7.20
2022-10-28T14:52:17.221Z,7.40
2022-10-28T14:54:51.944Z,8.00
2022-10-28T14:57:23.094Z,7.05
2022-10-28T14:59:52.000Z,8.52
2022-10-28T15:02:28.056Z,7.25
2022-10-28T15:07:58.446Z,6.45
2022-10-28T15:10:44.576Z,7.43
2022-10-28T15:13:18.425Z,6.97
2022-10-28T15:15:57.345Z,6.95
2022-10-28T15:18:27.109Z,6.50
2022-10-28T15:21:12.546Z,6.95
2022-10-28T15:23:52.169Z,6.53
2022-10-28T15:26:19.943Z,7.13
2022-10-28T15:28:47.693Z,6.82
2022-10-28T15:31:17.323Z,6.05
2022-10-28T15:33:45.346Z,6.38
2022-10-28T15:39:06.166Z,6.78
2022-10-28T15:42:04.870Z,7.25
2022-10-28T15:44:39.051Z,6.68
2022-10-28T15:47:29.373Z,6.78
2022-10-28T15:52:57.362Z,8.68
2022-10-28T15:55:47.692Z,9.30
2022-10-28T16:00:57.631Z,8.25
2022-10-28T16:03:31.215Z,7.97
2022-10-28T16:06:00.133Z,7.90
2022-10-28T16:08:30.453Z,6.72
2022-10-28T16:11:15.516Z,6.47
2022-10-28T16:13:49.286Z,6.75
2022-10-28T16:16:25.922Z,6.93
2022-10-28T16:19:27.192Z,7.68
2022-10-28T16:21:54.674Z,6.78
2022-10-28T16:24:22.199Z,7.38
2022-10-28T16:26:49.590Z,6.35
2022-10-28T16:29:16.966Z,7.93
2022-10-28T16:31:50.673Z,7.10
2022-10-28T16:34:18.259Z,6.43
2022-10-28T16:36:45.658Z,7.38
2022-10-28T16:39:13.482Z,6.75
2022-10-28T16:41:41.317Z,7.45
2022-10-28T16:44:17.971Z,5.72
2022-10-28T16:46:57.431Z,7.43
2022-10-28T16:49:24.873Z,7.15
2022-10-28T16:52:04.621Z,6.95
2022-10-28T16:54:32.230Z,6.15
2022-10-28T16:57:00.167Z,7.43
2022-10-28T16:59:28.106Z,6.90
2022-10-28T17:02:08.173Z,8.27
2022-10-28T17:04:36.182Z,7.40
2022-10-28T17:07:03.689Z,6.55
2022-10-28T17:09:43.125Z,7.53
2022-10-28T17:12:15.099Z,6.13
2022-10-28T17:14:42.746Z,8.13
2022-10-28T17:17:12.101Z,8.07
2022-10-28T17:19:40.622Z,8.73
2022-10-28T17:22:10.554Z,8.55
2022-10-28T17:24:38.941Z,8.88
2022-10-28T17:27:07.648Z,10.00
2022-10-28T17:29:35.671Z,9.05
2022-10-28T17:32:03.218Z,8.45
2022-10-28T17:34:30.618Z,7.30
2022-10-28T17:37:13.517Z,7.45
2022-10-28T17:39:43.292Z,8.32
2022-10-28T17:42:10.802Z,8.38
2022-10-28T17:47:23.023Z,7.18
2022-10-28T17:49:50.533Z,7.75
2022-10-28T17:52:34.240Z,7.95
2022-10-28T17:55:18.643Z,7.45
2022-10-28T17:57:46.092Z,7.30
2022-10-28T18:00:14.515Z,7.85
2022-10-28T18:02:53.941Z,7.13
2022-10-28T18:05:21.488Z,7.32
2022-10-28T18:07:49.040Z,7.03
2022-10-28T18:10:17.133Z,7.55
2022-10-28T18:12:44.505Z,7.63
2022-10-28T18:15:24.820Z,7.47
2022-10-28T18:18:04.312Z,7.55
2022-10-28T18:20:32.397Z,7.30
2022-10-28T18:23:00.369Z,6.43
2022-10-28T18:28:12.239Z,6.63
2022-10-28T18:30:39.660Z,7.93
2022-10-28T18:33:06.996Z,6.30
2022-10-28T18:38:19.434Z,6.75
2022-10-28T18:40:59.778Z,6.35
2022-10-28T18:43:28.056Z,6.10
2022-10-28T18:46:12.329Z,7.55
2022-10-28T18:51:25.086Z,5.93
2022-10-28T18:53:52.748Z,7.22
2022-10-28T18:56:34.474Z,6.65
2022-10-28T18:59:04.586Z,6.82
2022-10-28T19:01:33.436Z,6.68
2022-10-28T19:04:04.456Z,6.13
2022-10-28T19:06:33.576Z,7.13
2022-10-28T19:09:17.677Z,6.43
2022-10-28T19:11:45.043Z,6.40
2022-10-28T19:14:12.589Z,6.18
2022-10-28T19:16:51.942Z,7.28
2022-10-28T19:19:19.510Z,6.57
2022-10-28T19:21:46.933Z,6.80
2022-10-28T19:24:26.184Z,6.85
2022-10-28T19:26:53.743Z,7.85
2022-10-28T19:32:05.898Z,10.85
2022-10-28T19:34:33.387Z,12.00
2022-10-28T19:37:00.728Z,12.38
2022-10-28T19:39:29.566Z,11.05
2022-10-28T19:41:56.981Z,9.48
2022-10-28T19:44:24.589Z,9.00
2022-10-28T19:46:51.976Z,6.97
2022-10-28T19:49:23.808Z,7.18
2022-10-28T19:52:05.555Z,6.68
2022-10-28T19:54:33.799Z,5.43
2022-10-28T19:57:01.464Z,5.47
2022-10-28T19:59:40.977Z,5.78
2022-10-28T20:02:10.558Z,5.72
2022-10-28T20:04:50.183Z,6.93
2022-10-28T20:07:19.101Z,6.13
2022-10-28T20:09:46.612Z,6.03
2022-10-28T20:12:26.142Z,5.90
2022-10-28T20:15:05.560Z,6.32
2022-10-28T20:17:32.951Z,6.20
2022-10-28T20:20:00.328Z,6.03
2022-10-28T20:25:12.438Z,5.82
2022-10-28T20:27:39.786Z,6.45
2022-10-28T20:30:07.870Z,6.43
2022-10-28T20:32:36.668Z,6.60
2022-10-28T20:35:16.275Z,6.45
2022-10-28T20:37:43.740Z,6.50
2022-10-28T20:40:11.810Z,6.13
2022-10-28T20:42:39.457Z,6.63
2022-10-28T20:45:07.208Z,6.25
2022-10-28T20:47:34.625Z,6.15
2022-10-28T20:50:02.010Z,6.50
2022-10-28T20:52:30.803Z,6.38
2022-10-28T20:54:58.375Z,6.07
2022-10-28T20:57:25.754Z,5.75
2022-10-28T20:59:53.127Z,6.30
2022-10-28T21:02:20.586Z,6.25
2022-10-28T21:04:59.906Z,6.95
2022-10-28T21:07:27.199Z,6.88
2022-10-28T21:09:54.466Z,6.90
2022-10-28T21:12:21.797Z,7.00
2022-10-28T21:14:49.136Z,6.50
2022-10-28T21:17:16.465Z,6.40
2022-10-28T21:19:43.798Z,6.63
2022-10-28T21:22:11.213Z,6.55
2022-10-28T21:24:38.559Z,6.88
2022-10-28T21:27:05.900Z,6.55
2022-10-28T21:29:33.177Z,6.75
2022-10-28T21:32:00.528Z,5.70
2022-10-28T21:34:27.797Z,6.93
2022-10-28T21:36:55.230Z,6.13
2022-10-28T21:39:22.551Z,5.93
2022-10-28T21:41:49.876Z,6.25
2022-10-28T21:44:17.169Z,5.93
2022-10-28T21:46:48.065Z,6.47
2022-10-28T21:49:15.401Z,6.75
2022-10-28T21:51:43.170Z,6.80
2022-10-28T21:54:10.428Z,6.72
2022-10-28T21:56:37.745Z,7.32
2022-10-28T21:59:05.542Z,6.32
2022-10-28T22:01:33.215Z,5.80
2022-10-28T22:04:12.837Z,6.70
2022-10-28T22:06:40.233Z,6.32
2022-10-28T22:09:07.578Z,5.78
2022-10-28T22:11:34.900Z,6.15
2022-10-28T22:17:00.582Z,7.15
2022-10-28T22:19:27.954Z,5.45
2022-10-28T22:22:07.510Z,4.95
2022-10-28T22:24:34.880Z,5.47
2022-10-28T22:27:02.214Z,5.47
2022-10-28T22:29:29.531Z,5.80
2022-10-28T22:31:56.835Z,5.53
2022-10-28T22:34:24.203Z,5.38
2022-10-28T22:36:51.463Z,5.80
2022-10-28T22:39:18.745Z,6.55
2022-10-28T22:41:46.099Z,4.88
2022-10-28T22:44:13.432Z,4.80
2022-10-28T22:46:41.495Z,5.53
2022-10-28T22:49:08.841Z,4.97
2022-10-28T22:51:48.111Z,5.18
2022-10-28T22:54:16.182Z,5.03
2022-10-28T22:56:58.665Z,6.28
2022-10-28T22:59:26.045Z,5.93
2022-10-28T23:01:53.522Z,5.15
2022-10-28T23:04:20.964Z,5.90
2022-10-28T23:07:00.273Z,5.75
2022-10-28T23:09:27.549Z,5.78
2022-10-28T23:11:54.892Z,5.93
2022-10-28T23:14:22.268Z,5.55
2022-10-28T23:16:50.116Z,5.53
2022-10-28T23:19:17.479Z,4.82
2022-10-28T23:21:44.779Z,5.15
2022-10-28T23:24:12.113Z,5.03
2022-10-28T23:26:51.653Z,5.07
2022-10-28T23:29:19.504Z,5.72
2022-10-28T23:31:46.833Z,5.97
2022-10-28T23:34:14.182Z,4.78
2022-10-28T23:36:41.662Z,5.43
2022-10-28T23:39:08.967Z,4.88
2022-10-28T23:41:36.267Z,5.32
2022-10-28T23:44:03.627Z,5.72
2022-10-28T23:46:36.491Z,5.75
2022-10-28T23:49:04.937Z,5.97
2022-10-28T23:51:32.354Z,5.88
2022-10-28T23:54:00.143Z,5.40
2022-10-28T23:56:27.466Z,5.65
2022-10-28T23:58:54.790Z,6.07
